Time;durP1;ratioP1;P1;durP2;ratioP2;P2;SDS_P1;SDS_P2;PMS_P1;PMS_P2;Temp;Humidity;BMP_temperature;BMP_pressure;BME280_temperature;BME280_humidity;BME280_pressure;Samples;Min_cycle;Max_cycle;Signal;HPM_P1;HPM_P2
2021/10/18 00:01:02;;;;;;;10.35;7.60;;;;;;;19.32;58.72;101900.75;143732;859;46008;-68
2021/10/18 00:03:29;;;;;;;9.52;7.60;;;;;;;19.30;58.63;101895.56;143729;573;48008;-69
2021/10/18 00:06:01;;;;;;;12.65;7.97;;;;;;;19.32;58.82;101903.47;143719;636;48000;-70
2021/10/18 00:08:27;;;;;;;14.90;7.15;;;;;;;19.29;58.78;101906.66;143730;609;47002;-68
2021/10/18 00:10:53;;;;;;;17.15;7.50;;;;;;;19.28;58.67;101907.72;143727;588;47923;-67
2021/10/18 00:13:25;;;;;;;10.18;7.97;;;;;;;19.29;59.25;101906.66;143729;576;47989;-69
2021/10/18 00:15:54;;;;;;;12.95;9.50;;;;;;;19.25;59.25;101900.84;143722;590;47891;-69
2021/10/18 00:18:21;;;;;;;14.68;8.70;;;;;;;19.27;59.30;101900.59;143734;572;47002;-67
2021/10/18 00:20:47;;;;;;;10.95;8.75;;;;;;;19.26;58.89;101896.22;143732;952;46025;-67
2021/10/18 00:23:14;;;;;;;9.38;8.35;;;;;;;19.27;58.33;101900.59;143727;635;47004;-67
2021/10/18 00:25:40;;;;;;;11.02;8.25;;;;;;;19.26;58.30;101901.66;143729;607;47006;-68
2021/10/18 00:28:07;;;;;;;11.40;8.65;;;;;;;19.26;58.40;101893.47;143730;572;47004;-68
2021/10/18 00:30:33;;;;;;;14.07;8.23;;;;;;;19.21;58.32;101900.47;143730;591;46010;-68
2021/10/18 00:33:00;;;;;;;9.13;6.85;;;;;;;19.22;57.73;101902.13;143729;688;47004;-68
2021/10/18 00:42:08;;;;;;;7.82;6.07;;;;;;;19.16;57.00;101894.87;143722;573;47010;-68
2021/10/18 00:44:35;;;;;;;8.48;6.40;;;;;;;19.15;57.30;101895.09;143730;850;47002;-67
2021/10/18 00:47:02;;;;;;;9.43;6.22;;;;;;;19.13;56.78;101897.22;143728;590;47006;-68
2021/10/18 00:49:29;;;;;;;7.97;6.22;;;;;;;19.08;56.57;101892.44;143731;983;47004;-68
2021/10/18 00:51:56;;;;;;;6.10;4.90;;;;;;;19.06;56.53;101887.22;143726;572;47010;-67
2021/10/18 00:54:23;;;;;;;8.30;4.68;;;;;;;19.04;56.69;101891.25;143728;611;47005;-68
2021/10/18 00:56:50;;;;;;;6.47;4.95;;;;;;;19.03;56.79;101886.84;143729;584;46006;-68
2021/10/18 00:59:17;;;;;;;9.05;5.20;;;;;;;19.01;56.70;101887.06;143731;597;47002;-69
2021/10/18 01:01:44;;;;;;;7.60;5.37;;;;;;;19.01;57.20;101888.97;143730;602;47008;-68
2021/10/18 01:04:12;;;;;;;5.57;5.03;;;;;;;19.00;57.66;101887.31;143726;584;47002;-69
2021/10/18 01:06:40;;;;;;;6.93;5.90;;;;;;;18.99;57.55;101883.75;143719;569;47006;-70
2021/10/18 01:09:26;;;;;;;8.23;5.32;;;;;;;18.98;58.19;101882.06;143725;789;47000;-69
2021/10/18 01:11:52;;;;;;;7.70;5.50;;;;;;;18.93;58.79;101892.78;143729;567;47008;-69
2021/10/18 01:14:19;;;;;;;8.90;6.05;;;;;;;18.92;58.67;101891.13;143728;580;47004;-68
2021/10/18 01:16:51;;;;;;;8.32;5.37;;;;;;;18.91;58.75;101892.19;143730;783;46007;-68
2021/10/18 01:19:23;;;;;;;10.63;6.37;;;;;;;18.90;58.97;101888.63;143729;580;47006;-70
2021/10/18 01:21:56;;;;;;;6.57;5.65;;;;;;;18.91;58.85;101889.47;143728;613;47008;-69
2021/10/18 01:24:23;;;;;;;7.97;5.65;;;;;;;18.90;58.94;101885.91;143729;598;47004;-69
2021/10/18 01:26:50;;;;;;;7.78;6.12;;;;;;;18.87;58.74;101889.09;143730;606;46006;-69
2021/10/18 01:29:16;;;;;;;9.40;6.00;;;;;;;18.84;59.16;101881.37;143731;903;47004;-70
2021/10/18 01:31:51;;;;;;;6.30;5.30;;;;;;;18.79;59.27;101882.06;143724;604;47009;-70
2021/10/18 01:34:18;;;;;;;9.98;6.55;;;;;;;18.78;59.52;101882.25;143728;589;47004;-69
2021/10/18 01:36:50;;;;;;;11.30;6.82;;;;;;;18.73;59.59;101882.94;143727;588;47006;-70
2021/10/18 01:39:17;;;;;;;8.90;5.95;;;;;;;18.71;59.79;101886.97;143730;567;47002;-69
2021/10/18 01:41:44;;;;;;;7.72;6.15;;;;;;;18.68;59.70;101888.22;143723;605;47006;-69
2021/10/18 01:44:10;;;;;;;7.22;5.87;;;;;;;18.62;59.31;101883.69;143730;588;47004;-69
2021/10/18 01:46:37;;;;;;;9.75;5.10;;;;;;;18.62;58.87;101889.12;143727;602;47007;-69
2021/10/18 01:49:03;;;;;;;7.47;5.07;;;;;;;18.60;58.45;101883.09;143732;579;47002;-70
2021/10/18 01:51:29;;;;;;;8.02;5.45;;;;;;;18.62;58.35;101887.22;143728;636;47010;-69
2021/10/18 01:53:56;;;;;;;7.43;5.37;;;;;;;18.61;58.41;101882.84;143727;575;47004;-69
2021/10/18 01:56:22;;;;;;;7.15;5.65;;;;;;;18.60;58.72;101880.38;143722;589;47000;-69
2021/10/18 01:58:49;;;;;;;9.40;5.50;;;;;;;18.59;59.00;101890.41;143731;569;47004;-69
2021/10/18 02:01:15;;;;;;;6.82;5.35;;;;;;;18.56;58.89;101882.69;143728;567;47010;-69
2021/10/18 02:03:41;;;;;;;6.40;5.78;;;;;;;18.52;59.35;101884.19;143727;596;47004;-69
2021/10/18 02:06:11;;;;;;;11.20;5.93;;;;;;;18.48;59.13;101878.34;143727;588;47006;-69
2021/10/18 02:08:39;;;;;;;6.15;4.90;;;;;;;18.48;59.24;101881.06;143730;578;47004;-69
2021/10/18 02:11:06;;;;;;;7.75;5.78;;;;;;;18.47;59.29;101887.56;143731;575;46008;-69
2021/10/18 02:13:32;;;;;;;6.05;5.15;;;;;;;18.43;59.44;101883.66;143728;594;47004;-70
2021/10/18 02:16:07;;;;;;;6.57;5.35;;;;;;;18.43;59.54;101880.94;143731;598;46021;-69
2021/10/18 02:18:34;;;;;;;9.95;5.28;;;;;;;18.41;59.40;101880.31;143726;576;47002;-69
2021/10/18 02:21:09;;;;;;;7.57;5.18;;;;;;;18.40;59.50;101881.37;143723;592;47008;-69
2021/10/18 02:23:35;;;;;;;7.00;5.12;;;;;;;18.39;59.25;101878.84;143729;629;47004;-69
2021/10/18 02:26:02;;;;;;;6.12;4.82;;;;;;;18.38;59.05;101882.62;143730;593;47006;-69
2021/10/18 02:28:29;;;;;;;7.28;5.03;;;;;;;18.37;58.77;101884.53;143726;622;47006;-69
2021/10/18 02:30:55;;;;;;;7.62;5.07;;;;;;;18.35;58.50;101880.38;143729;633;47008;-69
2021/10/18 02:33:21;;;;;;;15.63;6.50;;;;;;;18.35;58.68;101885.81;143727;608;47004;-69
2021/10/18 02:35:48;;;;;;;9.32;5.00;;;;;;;18.31;58.80;101878.09;143730;592;46014;-68
2021/10/18 02:38:14;;;;;;;6.90;5.50;;;;;;;18.30;59.51;101884.59;143731;640;47004;-69
2021/10/18 02:40:41;;;;;;;9.63;6.10;;;;;;;18.28;59.41;101877.69;143722;573;47008;-69
2021/10/18 02:43:07;;;;;;;9.20;6.18;;;;;;;18.27;59.50;101882.31;143730;596;47004;-69
2021/10/18 02:45:34;;;;;;;10.32;7.35;;;;;;;18.24;59.75;101887.37;143724;633;47006;-70
2021/10/18 02:48:11;;;;;;;12.75;7.25;;;;;;;18.17;59.92;101888.25;143727;604;47002;-70
2021/10/18 02:50:37;;;;;;;13.18;7.12;;;;;;;18.14;60.05;101888.69;143728;650;46923;-69
2021/10/18 02:53:03;;;;;;;12.93;7.60;;;;;;;18.13;60.18;101883.47;143730;650;47005;-69
2021/10/18 02:55:30;;;;;;;12.93;7.90;;;;;;;18.11;60.27;101885.56;143730;632;46006;-69
2021/10/18 02:57:56;;;;;;;12.65;7.93;;;;;;;18.10;60.05;101886.63;143732;621;47004;-69
2021/10/18 03:00:23;;;;;;;10.50;6.47;;;;;;;18.06;60.04;101888.97;143727;604;47010;-69
2021/10/18 03:02:49;;;;;;;15.63;6.95;;;;;;;18.05;59.77;101889.16;143729;601;47004;-70
2021/10/18 03:05:16;;;;;;;10.45;7.18;;;;;;;18.07;60.18;101890.63;143728;585;47006;-70
2021/10/18 03:07:42;;;;;;;16.80;8.20;;;;;;;18.05;60.29;101894.59;143731;591;47000;-69
2021/10/18 03:10:09;;;;;;;15.73;7.22;;;;;;;18.04;60.02;101896.50;143723;598;47010;-69
2021/10/18 03:12:35;;;;;;;13.00;7.50;;;;;;;18.07;59.83;101897.94;143728;572;47004;-69
2021/10/18 03:15:04;;;;;;;11.05;6.82;;;;;;;18.07;58.77;101901.50;143723;620;47007;-69
2021/10/18 03:17:30;;;;;;;7.80;5.20;;;;;;;18.07;58.41;101900.66;143732;592;47004;-69
2021/10/18 03:19:56;;;;;;;5.53;4.85;;;;;;;18.06;57.62;101902.56;143728;567;47008;-69
2021/10/18 03:22:23;;;;;;;8.25;4.95;;;;;;;18.07;57.50;101898.78;143728;577;47004;-69
2021/10/18 03:24:49;;;;;;;4.93;4.07;;;;;;;18.09;56.80;101899.38;143730;586;46006;-69
2021/10/18 03:27:21;;;;;;;5.25;4.75;;;;;;;18.13;57.52;101899.78;143729;568;47002;-69
2021/10/18 03:29:49;;;;;;;7.78;4.85;;;;;;;18.13;57.31;101891.63;143731;625;46010;-69
2021/10/18 03:32:15;;;;;;;5.30;4.80;;;;;;;18.13;57.47;101897.06;143726;585;47004;-70
2021/10/18 03:34:42;;;;;;;8.80;5.40;;;;;;;18.12;57.29;101901.66;143726;567;46006;-70
2021/10/18 03:37:09;;;;;;;8.15;4.55;;;;;;;18.14;56.84;101898.75;143731;603;47004;-69
2021/10/18 03:39:36;;;;;;;5.15;4.40;;;;;;;18.18;56.85;101900.78;143726;590;47011;-70
2021/10/18 03:42:03;;;;;;;5.18;4.32;;;;;;;18.22;56.89;101894.91;143730;573;47004;-69
2021/10/18 03:44:30;;;;;;;7.20;4.43;;;;;;;18.20;57.02;101908.72;143727;584;47006;-69
2021/10/18 03:46:56;;;;;;;9.50;6.72;;;;;;;18.18;57.61;101899.94;143731;572;47004;-69
2021/10/18 03:49:23;;;;;;;7.75;5.60;;;;;;;18.20;57.44;101897.00;143728;599;47008;-69
2021/10/18 03:51:49;;;;;;;7.72;5.82;;;;;;;18.17;57.35;101896.41;143728;596;47004;-70
2021/10/18 03:54:16;;;;;;;11.05;5.72;;;;;;;18.17;57.23;101890.97;143728;589;47006;-69
2021/10/18 03:56:42;;;;;;;6.47;5.10;;;;;;;18.20;57.49;101894.28;143730;576;47004;-69
2021/10/18 03:59:09;;;;;;;6.78;5.95;;;;;;;18.19;57.80;101890.72;143722;577;47009;-69
2021/10/18 04:01:35;;;;;;;10.32;8.95;;;;;;;18.19;58.35;101901.59;143727;584;47004;-66
2021/10/18 04:04:02;;;;;;;9.88;7.30;;;;;;;18.17;58.12;101898.31;143731;623;46006;-69
2021/10/18 04:06:28;;;;;;;7.87;5.78;;;;;;;18.13;58.25;101897.87;143730;590;47002;-69
2021/10/18 04:08:55;;;;;;;26.37;21.50;;;;;;;18.10;58.51;101895.59;143728;595;47008;-69
2021/10/18 04:11:21;;;;;;;10.40;8.82;;;;;;;18.03;58.57;101903.81;143722;578;47004;-69
2021/10/18 04:13:48;;;;;;;15.57;7.70;;;;;;;17.98;59.03;101900.09;143728;699;47006;-69
2021/10/18 04:16:14;;;;;;;16.42;8.00;;;;;;;17.94;59.50;101904.25;143730;570;47002;-70
2021/10/18 04:18:40;;;;;;;14.82;8.15;;;;;;;17.94;59.50;101901.53;143729;610;47010;-69
2021/10/18 04:21:07;;;;;;;11.02;7.40;;;;;;;17.96;59.33;101903.00;143725;604;47004;-69
2021/10/18 04:23:34;;;;;;;14.43;7.72;;;;;;;17.96;59.47;101897.56;143724;569;47006;-69
2021/10/18 04:26:09;;;;;;;10.35;6.35;;;;;;;17.96;59.41;101904.87;143730;604;47002;-69
2021/10/18 04:28:35;;;;;;;11.27;8.05;;;;;;;17.95;59.47;101897.78;143729;601;47008;-69
2021/10/18 04:31:02;;;;;;;13.45;8.02;;;;;;;17.94;59.42;101907.81;143728;635;47004;-70
2021/10/18 04:33:28;;;;;;;12.55;7.32;;;;;;;17.96;59.54;101910.31;143729;573;46006;-69
2021/10/18 04:35:55;;;;;;;16.40;9.40;;;;;;;17.94;59.28;101915.97;143732;582;47004;-69
2021/10/18 04:38:21;;;;;;;14.10;7.10;;;;;;;17.93;59.22;101914.31;143729;572;47011;-69
2021/10/18 04:40:48;;;;;;;16.15;8.30;;;;;;;17.93;58.60;101917.03;143728;592;47004;-69
2021/10/18 04:43:15;;;;;;;8.82;7.82;;;;;;;17.95;58.94;101914.09;143726;580;47006;-70
2021/10/18 04:45:41;;;;;;;13.23;8.27;;;;;;;17.96;58.57;101919.31;143730;589;47004;-71
2021/10/18 04:48:08;;;;;;;14.55;6.97;;;;;;;17.95;59.09;101914.94;143723;608;47010;-70
2021/10/18 04:54:41;;;;;;;12.70;7.50;;;;;;;17.97;58.90;101926.41;143728;639;47006;-70
2021/10/18 04:57:08;;;;;;;16.98;9.70;;;;;;;17.96;58.94;101927.47;143731;626;47002;-69
2021/10/18 04:59:34;;;;;;;16.77;9.57;;;;;;;17.94;58.93;101926.00;143725;601;47010;-70
2021/10/18 05:02:01;;;;;;;22.77;10.55;;;;;;;17.96;58.88;101929.34;143730;581;47004;-70
2021/10/18 05:04:27;;;;;;;19.70;9.77;;;;;;;17.97;59.15;101931.84;143723;595;47006;-70
2021/10/18 05:06:53;;;;;;;16.20;9.25;;;;;;;17.97;59.26;101937.28;143732;637;47002;-70
2021/10/18 05:09:20;;;;;;;17.27;8.57;;;;;;;17.97;59.20;101940.00;143727;583;47011;-70
2021/10/18 05:11:46;;;;;;;15.57;7.53;;;;;;;17.99;59.24;101940.66;143727;650;47004;-70
2021/10/18 05:14:13;;;;;;;15.43;9.00;;;;;;;18.02;59.26;101953.78;143725;582;46007;-70
2021/10/18 05:16:39;;;;;;;18.00;8.52;;;;;;;18.05;59.12;101951.69;143730;609;47002;-70
2021/10/18 05:19:06;;;;;;;15.25;8.25;;;;;;;18.08;59.04;101954.81;143730;602;46010;-70
2021/10/18 05:21:32;;;;;;;13.70;7.50;;;;;;;18.11;58.65;101953.53;143728;617;47004;-70
2021/10/18 05:24:08;;;;;;;14.68;8.27;;;;;;;18.13;58.63;101954.16;143728;606;47006;-70
2021/10/18 05:26:34;;;;;;;15.38;8.00;;;;;;;18.16;59.12;101956.44;143731;587;47002;-70
2021/10/18 05:29:10;;;;;;;14.32;8.23;;;;;;;18.19;59.24;101958.72;143729;605;47010;-70
2021/10/18 05:31:36;;;;;;;12.77;7.12;;;;;;;18.22;58.82;101961.00;143731;570;47002;-70
2021/10/18 05:34:02;;;;;;;15.43;7.93;;;;;;;18.27;58.95;101961.19;143725;607;48006;-70
2021/10/18 05:36:29;;;;;;;16.48;7.72;;;;;;;18.28;58.62;101968.28;143732;629;47004;-70
2021/10/18 05:38:55;;;;;;;10.95;7.25;;;;;;;18.33;58.99;101970.34;143723;580;47010;-70
2021/10/18 05:41:21;;;;;;;18.33;8.98;;;;;;;18.33;58.93;101964.91;143728;580;47004;-69
2021/10/18 05:43:48;;;;;;;28.58;9.10;;;;;;;18.37;58.99;101965.28;143730;599;47007;-69
2021/10/18 05:46:14;;;;;;;15.98;9.23;;;;;;;18.41;58.81;101967.38;143731;586;47004;-69
2021/10/18 05:48:41;;;;;;;23.70;9.55;;;;;;;18.46;58.84;101969.41;143728;573;47010;-69
2021/10/18 05:51:08;;;;;;;17.55;9.93;;;;;;;18.47;58.71;101977.34;143729;598;47004;-69
2021/10/18 05:53:34;;;;;;;17.75;9.20;;;;;;;18.53;58.53;101977.53;143728;574;47006;-69
2021/10/18 05:56:10;;;;;;;28.20;10.77;;;;;;;18.57;58.19;101982.28;143730;614;47002;-69
2021/10/18 06:01:57;;;;;;;24.92;10.70;;;;;;;18.67;57.99;101986.41;143726;630;47004;-69
2021/10/18 06:04:23;;;;;;;17.80;9.70;;;;;;;18.68;57.86;101988.91;143724;646;47006;-69
2021/10/18 06:06:50;;;;;;;16.70;9.43;;;;;;;18.68;58.14;101993.53;143730;570;47004;-70
2021/10/18 06:09:16;;;;;;;12.60;8.73;;;;;;;18.67;58.04;101989.97;143729;585;47008;-69
2021/10/18 06:11:45;;;;;;;12.40;9.15;;;;;;;18.72;58.42;101994.72;143729;579;47002;-69
2021/10/18 06:14:11;;;;;;;14.05;8.85;;;;;;;18.79;58.08;101990.06;143729;601;46006;-69
2021/10/18 06:16:38;;;;;;;9.40;7.82;;;;;;;18.86;56.71;101998.19;143732;627;47002;-69
2021/10/18 06:19:04;;;;;;;7.65;6.47;;;;;;;18.91;56.61;101998.34;143728;602;47010;-69
2021/10/18 06:21:31;;;;;;;10.13;7.45;;;;;;;18.97;56.24;101999.37;143728;597;47004;-69
2021/10/18 06:23:57;;;;;;;11.20;6.47;;;;;;;19.02;56.18;102003.09;143729;573;47006;-69
2021/10/18 06:26:23;;;;;;;7.47;5.75;;;;;;;19.08;55.57;102007.66;143735;576;46018;-69
2021/10/18 06:28:50;;;;;;;10.02;6.15;;;;;;;19.15;55.77;102004.84;143724;579;47008;-70
2021/10/18 06:31:16;;;;;;;9.40;6.28;;;;;;;19.22;55.60;102007.50;143722;567;47004;-71
2021/10/18 06:33:42;;;;;;;11.48;6.32;;;;;;;19.26;55.15;102006.00;143730;567;46920;-70
2021/10/18 06:36:09;;;;;;;7.35;5.72;;;;;;;19.34;54.75;102005.69;143729;582;47002;-69
2021/10/18 06:38:35;;;;;;;10.10;6.45;;;;;;;19.39;54.95;102008.59;143729;586;47004;-70
2021/10/18 06:41:02;;;;;;;9.40;6.07;;;;;;;19.46;54.58;102007.69;143731;611;47004;-68
2021/10/18 06:43:28;;;;;;;8.45;6.03;;;;;;;19.47;54.41;102010.19;143728;592;47006;-69
2021/10/18 06:45:55;;;;;;;10.05;5.97;;;;;;;19.51;54.36;102016.00;143730;592;47004;-68
2021/10/18 06:48:21;;;;;;;8.75;6.00;;;;;;;19.55;53.94;102017.22;143729;589;47008;-68
2021/10/18 06:50:48;;;;;;;7.22;5.82;;;;;;;19.60;54.43;102025.56;143731;583;46014;-69
2021/10/18 06:53:17;;;;;;;9.15;7.03;;;;;;;19.70;53.94;102030.47;143726;604;46006;-68
2021/10/18 06:55:45;;;;;;;8.45;6.97;;;;;;;19.79;54.50;102037.25;143733;611;47000;-69
2021/10/18 06:58:12;;;;;;;10.48;6.97;;;;;;;19.88;53.61;102035.09;143729;585;47008;-68
2021/10/18 07:00:38;;;;;;;7.18;5.97;;;;;;;19.94;53.54;102036.09;143728;570;47004;-70
2021/10/18 07:03:05;;;;;;;6.53;5.82;;;;;;;19.98;53.17;102035.41;143730;613;47006;-70
2021/10/18 07:05:31;;;;;;;11.02;6.03;;;;;;;20.07;52.87;102046.81;143733;604;47004;-68
2021/10/18 07:08:07;;;;;;;8.45;5.55;;;;;;;20.01;53.02;102041.47;143728;972;47008;-65
2021/10/18 07:10:33;;;;;;;6.03;4.93;;;;;;;19.92;52.33;102044.50;143729;569;47004;-64
2021/10/18 07:13:11;;;;;;;8.07;4.82;;;;;;;19.95;51.59;102043.19;143732;586;46007;-64
2021/10/18 07:15:39;;;;;;;7.15;4.40;;;;;;;19.99;51.33;102039.78;143731;600;47006;-64
2021/10/18 07:18:07;;;;;;;10.82;5.00;;;;;;;20.01;51.61;102042.28;143723;608;47004;-66
2021/10/18 07:20:34;;;;;;;7.18;4.78;;;;;;;20.00;51.57;102037.88;143728;640;47005;-66
2021/10/18 07:23:11;;;;;;;9.95;6.28;;;;;;;20.08;52.69;102045.75;143731;602;46006;-66
2021/10/18 07:25:41;;;;;;;10.38;7.35;;;;;;;20.21;52.79;102041.19;143732;567;46023;-65
2021/10/18 07:28:08;;;;;;;12.30;7.82;;;;;;;20.22;53.27;102045.56;143730;593;47008;-65
2021/10/18 07:30:35;;;;;;;13.15;6.75;;;;;;;20.17;52.95;102045.44;143728;591;47004;-65
2021/10/18 07:33:02;;;;;;;12.45;8.07;;;;;;;20.15;52.49;102051.13;143731;972;46006;-66
2021/10/18 07:35:33;;;;;;;12.75;7.50;;;;;;;20.19;52.54;102056.94;143729;815;48002;-65
2021/10/18 07:38:00;;;;;;;11.98;6.00;;;;;;;20.26;51.90;102055.78;143729;760;48010;-67
2021/10/18 07:40:27;;;;;;;7.60;5.82;;;;;;;20.28;51.88;102053.66;143729;593;47004;-64
2021/10/18 07:42:54;;;;;;;9.23;6.55;;;;;;;20.39;51.18;102052.03;143725;597;47006;-66
2021/10/18 07:45:21;;;;;;;11.40;6.43;;;;;;;20.49;51.42;102056.94;143731;645;47004;-66
2021/10/18 07:47:48;;;;;;;6.37;5.68;;;;;;;20.54;50.74;102051.63;143733;594;46014;-67
2021/10/18 07:50:15;;;;;;;10.15;5.50;;;;;;;20.63;51.22;102054.00;143729;585;47004;-66
2021/10/18 07:52:43;;;;;;;8.50;6.22;;;;;;;20.71;50.72;102056.41;143732;623;46019;-65
2021/10/18 07:55:20;;;;;;;19.70;12.35;;;;;;;20.84;51.12;102053.50;143732;845;47004;-64
2021/10/18 07:57:50;;;;;;;13.80;7.40;;;;;;;20.92;51.05;102057.78;143724;639;47010;-64
2021/10/18 08:00:17;;;;;;;10.82;6.50;;;;;;;21.07;50.62;102046.41;143729;585;47006;-65
2021/10/18 08:02:45;;;;;;;13.02;6.57;;;;;;;21.25;50.46;102063.75;143727;597;47008;-66
2021/10/18 08:05:16;;;;;;;12.80;6.45;;;;;;;21.31;49.75;102052.69;143734;589;47006;-64
2021/10/18 08:07:45;;;;;;;14.70;8.85;;;;;;;21.37;50.30;102056.38;143724;981;47013;-64
2021/10/18 08:10:14;;;;;;;11.80;5.10;;;;;;;21.43;49.74;102054.56;143729;610;47006;-66
2021/10/18 08:12:40;;;;;;;10.45;6.35;;;;;;;21.42;50.39;102069.31;143729;733;46927;-67
2021/10/18 08:15:07;;;;;;;14.35;8.40;;;;;;;21.45;50.53;102066.91;143735;568;47004;-65
2021/10/18 08:17:34;;;;;;;9.23;7.57;;;;;;;21.51;50.15;102063.25;143730;667;47010;-66
2021/10/18 08:20:00;;;;;;;6.85;4.93;;;;;;;21.54;50.17;102070.13;143732;945;47007;-67
2021/10/18 08:22:26;;;;;;;8.80;4.90;;;;;;;21.54;50.16;102069.31;143729;983;47008;-66
2021/10/18 08:24:53;;;;;;;11.23;5.95;;;;;;;21.58;49.43;102065.84;143732;602;47004;-68
2021/10/18 08:27:20;;;;;;;6.45;4.55;;;;;;;21.49;49.71;102061.81;143728;972;47011;-68
2021/10/18 08:29:47;;;;;;;6.53;3.97;;;;;;;21.50;49.89;102066.22;143733;909;47004;-66
2021/10/18 08:32:14;;;;;;;5.05;4.30;;;;;;;21.52;49.46;102072.28;143727;643;46927;-63
2021/10/18 08:41:38;;;;;;;8.02;5.43;;;;;;;21.33;50.38;102063.38;143732;973;47010;-64
2021/10/18 08:44:15;;;;;;;5.72;4.78;;;;;;;21.35;50.66;102064.81;143730;984;47009;-65
2021/10/18 08:46:53;;;;;;;6.18;4.53;;;;;;;21.32;50.56;102068.03;143733;593;47004;-65
2021/10/18 08:49:21;;;;;;;6.20;4.87;;;;;;;21.31;50.83;102065.50;143732;582;46010;-66
2021/10/18 08:51:48;;;;;;;5.32;4.15;;;;;;;21.50;51.09;102066.22;143731;977;47004;-66
2021/10/18 08:54:16;;;;;;;6.53;4.70;;;;;;;21.84;49.38;102063.69;143730;573;47008;-66
2021/10/18 08:56:42;;;;;;;6.20;4.78;;;;;;;22.08;48.89;102066.34;143733;680;47005;-65
2021/10/18 08:59:09;;;;;;;8.25;5.95;;;;;;;22.19;50.20;102061.91;143723;582;47013;-64
2021/10/18 09:05:31;;;;;;;9.57;6.37;;;;;;;22.47;50.73;102054.81;143731;567;47002;-64
2021/10/18 09:07:57;;;;;;;6.53;5.82;;;;;;;22.28;49.15;102065.94;143733;871;47013;-64
2021/10/18 09:10:24;;;;;;;6.75;4.85;;;;;;;22.29;50.28;102064.84;143732;588;46031;-64
2021/10/18 09:12:50;;;;;;;9.35;5.37;;;;;;;22.14;51.31;102061.81;143729;946;47006;-64
2021/10/18 09:15:24;;;;;;;6.37;5.15;;;;;;;21.92;51.90;102063.31;143730;874;47008;-64
2021/10/18 09:17:55;;;;;;;6.55;5.90;;;;;;;22.32;51.12;102066.25;143733;597;47004;-65
2021/10/18 09:20:36;;;;;;;7.45;5.60;;;;;;;24.65;45.34;102064.84;143730;897;47012;-66
2021/10/18 09:23:26;;;;;;;11.05;5.20;;;;;;;26.33;40.85;102058.94;143730;713;47006;-66
2021/10/18 09:25:59;;;;;;;8.38;5.62;;;;;;;25.71;41.30;102058.75;143726;573;46008;-66
2021/10/18 09:28:27;;;;;;;7.03;4.50;;;;;;;25.75;42.10;102062.62;143734;593;47004;-66
2021/10/18 09:30:54;;;;;;;8.05;4.10;;;;;;;27.11;40.18;102045.19;143729;590;47010;-66
2021/10/18 09:36:15;;;;;;;5.53;5.03;;;;;;;30.92;31.72;102044.56;143730;720;47006;-64
2021/10/18 09:38:41;;;;;;;6.80;5.25;;;;;;;33.83;26.79;102042.84;143732;568;47004;-65
2021/10/18 09:41:08;;;;;;;8.40;5.00;;;;;;;33.99;26.92;102046.00;143731;634;47012;-65
2021/10/18 09:43:46;;;;;;;7.22;6.50;;;;;;;32.48;29.06;102035.41;143730;598;47006;-66
2021/10/18 09:46:16;;;;;;;7.47;5.75;;;;;;;28.94;34.45;102045.56;143728;569;47008;-66
2021/10/18 10:53:53;;;;;;;5.60;4.10;;;;;;;23.58;47.80;101990.16;143732;625;46916;-64
2021/10/18 10:57:03;;;;;;;8.57;4.18;;;;;;;23.81;47.53;101990.97;143732;621;47004;-65
2021/10/18 10:59:33;;;;;;;4.78;3.95;;;;;;;23.79;47.28;101984.09;143731;600;47008;-65
2021/10/18 11:02:11;;;;;;;7.15;3.50;;;;;;;23.83;47.68;101983.31;143729;589;47004;-65
2021/10/18 11:04:39;;;;;;;5.32;3.60;;;;;;;23.77;47.65;101981.59;143731;690;46008;-65
2021/10/18 11:07:11;;;;;;;5.07;3.83;;;;;;;23.62;48.18;101980.34;143733;567;47004;-64
2021/10/18 11:09:58;;;;;;;7.55;3.95;;;;;;;23.64;47.88;101966.41;143730;692;47010;-64
2021/10/18 11:13:03;;;;;;;6.12;4.05;;;;;;;23.70;46.97;101972.75;143730;684;47005;-65
2021/10/18 11:15:30;;;;;;;4.47;3.78;;;;;;;23.69;47.02;101974.66;143726;582;46019;-66
2021/10/18 11:17:56;;;;;;;5.45;4.20;;;;;;;23.75;46.50;101972.78;143731;567;47002;-66
2021/10/18 11:20:27;;;;;;;8.43;5.37;;;;;;;23.79;46.48;101978.63;143730;602;47011;-65
2021/10/18 11:23:02;;;;;;;8.65;3.97;;;;;;;23.77;45.71;101978.84;143729;732;47004;-66
2021/10/18 11:25:36;;;;;;;4.82;4.35;;;;;;;23.69;46.38;101974.66;143730;605;47006;-64
2021/10/18 11:28:06;;;;;;;5.97;3.75;;;;;;;23.83;47.21;101977.84;143730;586;48006;-65
2021/10/18 11:30:34;;;;;;;7.43;3.62;;;;;;;23.67;46.09;101984.25;143729;598;47010;-65
2021/10/18 11:33:10;;;;;;;7.22;3.75;;;;;;;23.54;47.39;101980.81;143731;573;47004;-65
2021/10/18 11:35:37;;;;;;;4.60;4.03;;;;;;;23.46;47.43;101973.88;143730;567;47006;-65
2021/10/18 11:38:09;;;;;;;7.95;4.18;;;;;;;23.45;47.10;101979.59;143732;588;47004;-65
2021/10/18 11:40:48;;;;;;;4.22;3.83;;;;;;;23.27;47.09;101980.75;143725;569;47010;-68
2021/10/18 11:43:19;;;;;;;7.37;4.57;;;;;;;23.19;47.46;101965.53;143729;602;47004;-65
2021/10/18 11:49:09;;;;;;;5.35;4.10;;;;;;;23.06;49.98;101976.84;143734;576;47002;-65
2021/10/18 11:51:35;;;;;;;10.10;5.80;;;;;;;22.99;54.35;101974.28;143731;631;47008;-65
2021/10/18 11:54:07;;;;;;;8.70;5.03;;;;;;;22.85;57.38;101971.91;143729;592;47004;-64
2021/10/18 11:56:33;;;;;;;6.60;5.00;;;;;;;22.68;58.12;101980.13;143726;589;47006;-65
2021/10/18 11:59:05;;;;;;;6.57;4.82;;;;;;;22.49;61.50;101986.94;143735;594;47004;-65
2021/10/18 12:01:31;;;;;;;8.05;5.45;;;;;;;22.34;61.47;101990.22;143729;572;47008;-65
2021/10/18 12:10:50;;;;;;;5.00;4.60;;;;;;;21.92;59.99;101977.69;143733;602;47003;-65
2021/10/18 12:13:40;;;;;;;6.12;4.72;;;;;;;21.87;59.03;101978.44;143729;590;47011;-66
2021/10/18 12:16:09;;;;;;;5.82;4.70;;;;;;;21.84;58.41;101978.06;143729;586;47004;-65
2021/10/18 12:18:45;;;;;;;8.35;5.35;;;;;;;21.80;59.01;101973.06;143731;581;47007;-65
2021/10/18 12:21:23;;;;;;;6.05;5.32;;;;;;;21.75;56.88;101972.16;143732;567;47002;-65
2021/10/18 12:24:00;;;;;;;6.30;5.07;;;;;;;21.68;56.41;101971.47;143730;583;47010;-64
2021/10/18 12:26:40;;;;;;;5.40;4.90;;;;;;;21.62;55.96;101967.81;143731;577;47005;-65
2021/10/18 12:29:09;;;;;;;5.68;4.82;;;;;;;21.57;58.52;101973.97;143731;651;47006;-64
2021/10/18 12:31:49;;;;;;;7.45;5.10;;;;;;;21.55;59.22;101978.84;143732;602;47002;-65
2021/10/18 12:34:35;;;;;;;6.40;5.47;;;;;;;21.49;59.45;101977.91;143723;603;47009;-66
2021/10/18 12:37:09;;;;;;;7.30;5.93;;;;;;;21.50;58.47;101968.63;143730;591;47004;-66
2021/10/18 12:40:03;;;;;;;6.75;6.05;;;;;;;21.45;58.83;101973.16;143731;632;46006;-65
2021/10/18 12:42:49;;;;;;;6.27;5.67;;;;;;;21.47;57.69;101976.50;143735;580;47000;-64
2021/10/18 12:45:17;;;;;;;6.55;5.12;;;;;;;21.42;56.95;101987.31;143730;588;47008;-64
2021/10/18 12:47:54;;;;;;;7.03;5.07;;;;;;;21.36;58.20;101986.37;143729;615;47004;-66
2021/10/18 12:50:25;;;;;;;5.32;4.60;;;;;;;21.29;56.87;101972.84;143731;588;47006;-64
2021/10/18 12:52:54;;;;;;;6.03;4.53;;;;;;;21.30;55.16;101984.59;143732;632;47002;-64
2021/10/18 12:55:26;;;;;;;4.47;4.07;;;;;;;21.26;54.94;101970.59;143732;662;47008;-65
2021/10/18 12:58:19;;;;;;;5.50;4.10;;;;;;;21.25;54.55;101973.56;143729;567;47004;-65
2021/10/18 13:00:46;;;;;;;4.30;3.80;;;;;;;21.32;56.88;101966.06;143725;740;46017;-65
2021/10/18 13:03:22;;;;;;;6.32;5.00;;;;;;;21.44;55.95;101968.78;143732;585;47002;-65
2021/10/18 13:05:55;;;;;;;9.18;5.53;;;;;;;21.58;55.01;101967.44;143730;574;46025;-65
2021/10/18 13:08:24;;;;;;;6.95;4.82;;;;;;;21.73;54.64;101977.03;143727;572;47004;-65
2021/10/18 13:10:52;;;;;;;5.03;4.53;;;;;;;21.67;54.43;101967.91;143730;570;46021;-65
2021/10/18 13:13:20;;;;;;;8.27;4.60;;;;;;;21.69;54.20;101979.44;143731;796;47004;-65